sensor_id;sensor_type;location;lat;lon;timestamp;P1;durP1;ratioP1;P2;durP2;ratioP2
42616;SDS011;28250;52.320;0.360;2024-01-15T00:01:21;7.20;;;1.70;;
42616;SDS011;28250;52.320;0.360;2024-01-15T00:03:47;2.42;;;1.30;;
42616;SDS011;28250;52.320;0.360;2024-01-15T00:06:13;3.78;;;1.67;;
42616;SDS011;28250;52.320;0.360;2024-01-15T00:08:41;5.22;;;1.40;;
42616;SDS011;28250;52.320;0.360;2024-01-15T00:11:08;2.70;;;1.30;;
42616;SDS011;28250;52.320;0.360;2024-01-15T00:13:34;4.90;;;1.77;;
42616;SDS011;28250;52.320;0.360;2024-01-15T00:16:03;1.35;;;1.10;;
42616;SDS011;28250;52.320;0.360;2024-01-15T00:18:30;5.22;;;1.42;;
42616;SDS011;28250;52.320;0.360;2024-01-15T00:20:56;3.30;;;1.00;;
42616;SDS011;28250;52.320;0.360;2024-01-15T00:23:22;3.47;;;1.00;;
42616;SDS011;28250;52.320;0.360;2024-01-15T00:25:50;2.53;;;1.05;;
42616;SDS011;28250;52.320;0.360;2024-01-15T00:28:17;4.47;;;1.60;;
42616;SDS011;28250;52.320;0.360;2024-01-15T00:30:43;4.28;;;1.20;;
42616;SDS011;28250;52.320;0.360;2024-01-15T00:33:09;1.75;;;1.10;;
42616;SDS011;28250;52.320;0.360;2024-01-15T00:35:37;3.08;;;1.35;;
42616;SDS011;28250;52.320;0.360;2024-01-15T00:38:03;2.10;;;0.95;;
42616;SDS011;28250;52.320;0.360;2024-01-15T00:40:29;3.40;;;1.45;;
42616;SDS011;28250;52.320;0.360;2024-01-15T00:42:55;2.50;;;0.90;;
42616;SDS011;28250;52.320;0.360;2024-01-15T00:45:21;2.10;;;0.80;;
42616;SDS011;28250;52.320;0.360;2024-01-15T00:47:48;2.67;;;0.90;;
42616;SDS011;28250;52.320;0.360;2024-01-15T00:50:14;3.13;;;1.00;;
42616;SDS011;28250;52.320;0.360;2024-01-15T00:52:40;2.13;;;1.30;;
42616;SDS011;28250;52.320;0.360;2024-01-15T00:55:06;3.30;;;1.30;;
42616;SDS011;28250;52.320;0.360;2024-01-15T00:57:33;2.17;;;1.17;;
42616;SDS011;28250;52.320;0.360;2024-01-15T00:59:59;3.35;;;0.98;;
42616;SDS011;28250;52.320;0.360;2024-01-15T01:02:26;2.00;;;1.20;;
42616;SDS011;28250;52.320;0.360;2024-01-15T01:04:52;2.17;;;1.17;;
42616;SDS011;28250;52.320;0.360;2024-01-15T01:07:18;4.35;;;1.30;;
42616;SDS011;28250;52.320;0.360;2024-01-15T01:09:44;3.40;;;1.35;;
42616;SDS011;28250;52.320;0.360;2024-01-15T01:12:11;6.90;;;1.98;;
42616;SDS011;28250;52.320;0.360;2024-01-15T01:14:37;6.60;;;2.15;;
42616;SDS011;28250;52.320;0.360;2024-01-15T01:17:03;3.70;;;1.92;;
42616;SDS011;28250;52.320;0.360;2024-01-15T01:19:29;4.65;;;2.25;;
42616;SDS011;28250;52.320;0.360;2024-01-15T01:21:55;5.70;;;2.20;;
42616;SDS011;28250;52.320;0.360;2024-01-15T01:24:22;5.28;;;1.70;;
42616;SDS011;28250;52.320;0.360;2024-01-15T01:26:48;4.95;;;2.13;;
42616;SDS011;28250;52.320;0.360;2024-01-15T01:29:14;5.15;;;2.42;;
42616;SDS011;28250;52.320;0.360;2024-01-15T01:31:43;3.45;;;2.67;;
42616;SDS011;28250;52.320;0.360;2024-01-15T01:34:13;4.55;;;2.05;;
42616;SDS011;28250;52.320;0.360;2024-01-15T01:36:40;3.53;;;2.22;;
42616;SDS011;28250;52.320;0.360;2024-01-15T01:39:08;4.72;;;2.15;;
42616;SDS011;28250;52.320;0.360;2024-01-15T01:44:01;5.03;;;2.03;;
42616;SDS011;28250;52.320;0.360;2024-01-15T01:46:27;3.88;;;2.17;;
42616;SDS011;28250;52.320;0.360;2024-01-15T01:48:54;4.03;;;2.10;;
42616;SDS011;28250;52.320;0.360;2024-01-15T01:53:48;4.68;;;2.15;;
42616;SDS011;28250;52.320;0.360;2024-01-15T01:56:16;5.55;;;2.00;;
42616;SDS011;28250;52.320;0.360;2024-01-15T01:58:43;6.82;;;2.67;;
42616;SDS011;28250;52.320;0.360;2024-01-15T02:06:05;5.32;;;1.95;;
42616;SDS011;28250;52.320;0.360;2024-01-15T02:08:36;4.75;;;2.42;;
42616;SDS011;28250;52.320;0.360;2024-01-15T02:11:02;5.80;;;2.50;;
42616;SDS011;28250;52.320;0.360;2024-01-15T02:13:29;3.93;;;1.53;;
42616;SDS011;28250;52.320;0.360;2024-01-15T02:15:55;4.05;;;1.77;;
42616;SDS011;28250;52.320;0.360;2024-01-15T02:18:21;2.33;;;1.80;;
42616;SDS011;28250;52.320;0.360;2024-01-15T02:20:47;4.97;;;1.50;;
42616;SDS011;28250;52.320;0.360;2024-01-15T02:23:14;6.03;;;1.98;;
42616;SDS011;28250;52.320;0.360;2024-01-15T02:25:41;1.90;;;1.38;;
42616;SDS011;28250;52.320;0.360;2024-01-15T02:28:12;4.32;;;1.30;;
42616;SDS011;28250;52.320;0.360;2024-01-15T02:30:41;1.90;;;1.65;;
42616;SDS011;28250;52.320;0.360;2024-01-15T02:33:08;2.67;;;1.50;;
42616;SDS011;28250;52.320;0.360;2024-01-15T02:38:02;2.85;;;1.45;;
42616;SDS011;28250;52.320;0.360;2024-01-15T02:40:32;4.22;;;2.45;;
42616;SDS011;28250;52.320;0.360;2024-01-15T02:42:58;3.60;;;1.20;;
42616;SDS011;28250;52.320;0.360;2024-01-15T02:45:24;3.22;;;1.27;;
42616;SDS011;28250;52.320;0.360;2024-01-15T02:47:51;4.03;;;1.07;;
42616;SDS011;28250;52.320;0.360;2024-01-15T02:50:17;3.08;;;1.10;;
42616;SDS011;28250;52.320;0.360;2024-01-15T02:52:43;2.67;;;1.30;;
42616;SDS011;28250;52.320;0.360;2024-01-15T02:55:10;2.13;;;0.82;;
42616;SDS011;28250;52.320;0.360;2024-01-15T02:57:36;4.10;;;1.65;;
42616;SDS011;28250;52.320;0.360;2024-01-15T03:00:02;4.13;;;2.20;;
42616;SDS011;28250;52.320;0.360;2024-01-15T03:04:58;7.13;;;3.05;;
42616;SDS011;28250;52.320;0.360;2024-01-15T03:07:24;3.88;;;1.95;;
42616;SDS011;28250;52.320;0.360;2024-01-15T03:09:50;6.72;;;2.65;;
42616;SDS011;28250;52.320;0.360;2024-01-15T03:12:16;5.72;;;2.30;;
42616;SDS011;28250;52.320;0.360;2024-01-15T03:14:43;4.57;;;2.15;;
42616;SDS011;28250;52.320;0.360;2024-01-15T03:17:09;5.45;;;1.80;;
42616;SDS011;28250;52.320;0.360;2024-01-15T03:19:36;4.20;;;1.65;;
42616;SDS011;28250;52.320;0.360;2024-01-15T03:22:02;4.97;;;1.90;;
42616;SDS011;28250;52.320;0.360;2024-01-15T03:24:29;3.08;;;1.90;;
42616;SDS011;28250;52.320;0.360;2024-01-15T03:26:57;3.70;;;1.83;;
42616;SDS011;28250;52.320;0.360;2024-01-15T03:29:23;3.67;;;1.90;;
42616;SDS011;28250;52.320;0.360;2024-01-15T03:31:49;3.00;;;1.77;;
42616;SDS011;28250;52.320;0.360;2024-01-15T03:34:15;2.83;;;1.58;;
42616;SDS011;28250;52.320;0.360;2024-01-15T03:36:41;3.30;;;1.60;;
42616;SDS011;28250;52.320;0.360;2024-01-15T03:39:07;5.70;;;1.58;;
42616;SDS011;28250;52.320;0.360;2024-01-15T03:41:33;4.90;;;2.08;;
42616;SDS011;28250;52.320;0.360;2024-01-15T03:43:59;3.45;;;1.90;;
42616;SDS011;28250;52.320;0.360;2024-01-15T03:46:26;2.53;;;1.50;;
42616;SDS011;28250;52.320;0.360;2024-01-15T03:48:52;3.00;;;1.67;;
42616;SDS011;28250;52.320;0.360;2024-01-15T03:51:19;3.55;;;1.50;;
42616;SDS011;28250;52.320;0.360;2024-01-15T03:53:45;4.67;;;1.73;;
42616;SDS011;28250;52.320;0.360;2024-01-15T03:56:12;4.40;;;1.75;;
42616;SDS011;28250;52.320;0.360;2024-01-15T03:58:39;6.75;;;1.85;;
42616;SDS011;28250;52.320;0.360;2024-01-15T04:01:11;4.32;;;1.50;;
42616;SDS011;28250;52.320;0.360;2024-01-15T04:03:37;2.80;;;1.48;;
42616;SDS011;28250;52.320;0.360;2024-01-15T04:06:04;4.78;;;1.60;;
42616;SDS011;28250;52.320;0.360;2024-01-15T04:08:30;5.40;;;1.77;;
42616;SDS011;28250;52.320;0.360;2024-01-15T04:10:56;3.50;;;1.52;;
42616;SDS011;28250;52.320;0.360;2024-01-15T04:13:22;2.67;;;1.35;;
42616;SDS011;28250;52.320;0.360;2024-01-15T04:15:49;3.55;;;1.80;;
42616;SDS011;28250;52.320;0.360;2024-01-15T04:18:15;4.43;;;1.58;;
42616;SDS011;28250;52.320;0.360;2024-01-15T04:20:42;2.80;;;1.45;;
42616;SDS011;28250;52.320;0.360;2024-01-15T04:23:09;3.70;;;1.50;;
42616;SDS011;28250;52.320;0.360;2024-01-15T04:25:35;3.05;;;1.60;;
42616;SDS011;28250;52.320;0.360;2024-01-15T04:28:01;3.13;;;1.42;;
42616;SDS011;28250;52.320;0.360;2024-01-15T04:30:27;4.85;;;1.65;;
42616;SDS011;28250;52.320;0.360;2024-01-15T04:32:53;3.67;;;1.60;;
42616;SDS011;28250;52.320;0.360;2024-01-15T04:35:19;5.45;;;1.70;;
42616;SDS011;28250;52.320;0.360;2024-01-15T04:37:45;4.63;;;1.83;;
42616;SDS011;28250;52.320;0.360;2024-01-15T04:40:11;2.85;;;1.33;;
42616;SDS011;28250;52.320;0.360;2024-01-15T04:42:38;4.45;;;1.50;;
42616;SDS011;28250;52.320;0.360;2024-01-15T04:45:04;4.47;;;1.70;;
42616;SDS011;28250;52.320;0.360;2024-01-15T04:47:30;3.87;;;1.37;;
42616;SDS011;28250;52.320;0.360;2024-01-15T04:49:56;3.10;;;1.33;;
42616;SDS011;28250;52.320;0.360;2024-01-15T04:52:22;2.22;;;1.38;;
42616;SDS011;28250;52.320;0.360;2024-01-15T04:54:48;6.32;;;1.95;;
42616;SDS011;28250;52.320;0.360;2024-01-15T04:57:15;4.15;;;1.98;;
42616;SDS011;28250;52.320;0.360;2024-01-15T04:59:41;4.07;;;1.25;;
42616;SDS011;28250;52.320;0.360;2024-01-15T05:02:07;3.35;;;1.23;;
42616;SDS011;28250;52.320;0.360;2024-01-15T05:04:33;3.38;;;1.05;;
42616;SDS011;28250;52.320;0.360;2024-01-15T05:06:59;2.90;;;1.35;;
42616;SDS011;28250;52.320;0.360;2024-01-15T05:09:25;4.47;;;1.25;;
42616;SDS011;28250;52.320;0.360;2024-01-15T05:11:51;4.65;;;1.25;;
42616;SDS011;28250;52.320;0.360;2024-01-15T05:14:17;3.00;;;1.45;;
42616;SDS011;28250;52.320;0.360;2024-01-15T05:16:47;3.08;;;1.50;;
42616;SDS011;28250;52.320;0.360;2024-01-15T05:19:13;2.20;;;1.10;;
42616;SDS011;28250;52.320;0.360;2024-01-15T05:21:39;4.63;;;2.05;;
42616;SDS011;28250;52.320;0.360;2024-01-15T05:24:05;4.70;;;1.58;;
42616;SDS011;28250;52.320;0.360;2024-01-15T05:26:32;4.97;;;1.58;;
42616;SDS011;28250;52.320;0.360;2024-01-15T05:28:58;5.85;;;1.48;;
42616;SDS011;28250;52.320;0.360;2024-01-15T05:31:25;2.13;;;1.10;;
42616;SDS011;28250;52.320;0.360;2024-01-15T05:33:56;5.03;;;1.25;;
42616;SDS011;28250;52.320;0.360;2024-01-15T05:36:22;1.77;;;1.10;;
42616;SDS011;28250;52.320;0.360;2024-01-15T05:38:48;3.30;;;1.58;;
42616;SDS011;28250;52.320;0.360;2024-01-15T05:41:15;2.42;;;1.00;;
42616;SDS011;28250;52.320;0.360;2024-01-15T05:43:41;2.33;;;1.10;;
42616;SDS011;28250;52.320;0.360;2024-01-15T05:46:07;2.17;;;1.20;;
42616;SDS011;28250;52.320;0.360;2024-01-15T05:48:33;3.15;;;1.15;;
42616;SDS011;28250;52.320;0.360;2024-01-15T05:50:59;1.60;;;0.80;;
42616;SDS011;28250;52.320;0.360;2024-01-15T05:53:25;3.07;;;1.67;;
42616;SDS011;28250;52.320;0.360;2024-01-15T05:55:51;2.95;;;1.23;;
42616;SDS011;28250;52.320;0.360;2024-01-15T05:58:18;1.25;;;0.95;;
42616;SDS011;28250;52.320;0.360;2024-01-15T06:00:44;2.72;;;1.58;;
42616;SDS011;28250;52.320;0.360;2024-01-15T06:03:12;4.97;;;1.27;;
42616;SDS011;28250;52.320;0.360;2024-01-15T06:05:38;4.00;;;1.30;;
42616;SDS011;28250;52.320;0.360;2024-01-15T06:08:05;4.22;;;1.33;;
42616;SDS011;28250;52.320;0.360;2024-01-15T06:10:31;5.80;;;1.23;;
42616;SDS011;28250;52.320;0.360;2024-01-15T06:12:57;3.70;;;1.17;;
42616;SDS011;28250;52.320;0.360;2024-01-15T06:15:23;3.95;;;1.15;;
42616;SDS011;28250;52.320;0.360;2024-01-15T06:17:49;3.83;;;0.98;;
42616;SDS011;28250;52.320;0.360;2024-01-15T06:20:15;2.47;;;0.98;;
42616;SDS011;28250;52.320;0.360;2024-01-15T06:22:41;2.38;;;1.08;;
42616;SDS011;28250;52.320;0.360;2024-01-15T06:25:07;5.65;;;1.70;;
42616;SDS011;28250;52.320;0.360;2024-01-15T06:27:34;2.80;;;1.08;;
42616;SDS011;28250;52.320;0.360;2024-01-15T06:30:00;2.97;;;1.10;;
42616;SDS011;28250;52.320;0.360;2024-01-15T06:32:26;4.60;;;1.10;;
42616;SDS011;28250;52.320;0.360;2024-01-15T06:34:52;3.17;;;1.30;;
42616;SDS011;28250;52.320;0.360;2024-01-15T06:37:18;6.60;;;1.60;;
42616;SDS011;28250;52.320;0.360;2024-01-15T06:39:45;2.47;;;1.40;;
42616;SDS011;28250;52.320;0.360;2024-01-15T06:42:11;4.18;;;1.35;;
42616;SDS011;28250;52.320;0.360;2024-01-15T06:44:38;2.83;;;1.73;;
42616;SDS011;28250;52.320;0.360;2024-01-15T06:47:05;3.47;;;2.58;;
42616;SDS011;28250;52.320;0.360;2024-01-15T06:49:31;7.55;;;4.43;;
42616;SDS011;28250;52.320;0.360;2024-01-15T06:51:57;7.32;;;4.35;;
42616;SDS011;28250;52.320;0.360;2024-01-15T06:54:23;9.57;;;4.45;;
42616;SDS011;28250;52.320;0.360;2024-01-15T06:56:49;5.95;;;3.03;;
42616;SDS011;28250;52.320;0.360;2024-01-15T06:59:15;4.07;;;2.33;;
42616;SDS011;28250;52.320;0.360;2024-01-15T07:01:42;7.60;;;2.75;;
42616;SDS011;28250;52.320;0.360;2024-01-15T07:04:08;8.75;;;2.72;;
42616;SDS011;28250;52.320;0.360;2024-01-15T07:06:34;8.77;;;3.33;;
42616;SDS011;28250;52.320;0.360;2024-01-15T07:09:00;6.22;;;2.60;;
42616;SDS011;28250;52.320;0.360;2024-01-15T07:11:26;3.75;;;2.05;;
42616;SDS011;28250;52.320;0.360;2024-01-15T07:13:52;4.03;;;1.38;;
42616;SDS011;28250;52.320;0.360;2024-01-15T07:16:18;2.17;;;1.20;;
42616;SDS011;28250;52.320;0.360;2024-01-15T07:18:44;3.78;;;1.20;;
42616;SDS011;28250;52.320;0.360;2024-01-15T07:21:10;2.25;;;1.02;;
42616;SDS011;28250;52.320;0.360;2024-01-15T07:23:36;3.80;;;1.10;;
42616;SDS011;28250;52.320;0.360;2024-01-15T07:26:02;3.20;;;0.98;;
42616;SDS011;28250;52.320;0.360;2024-01-15T07:28:30;2.40;;;1.05;;
42616;SDS011;28250;52.320;0.360;2024-01-15T07:30:57;3.00;;;1.02;;
42616;SDS011;28250;52.320;0.360;2024-01-15T07:33:23;1.65;;;1.23;;
42616;SDS011;28250;52.320;0.360;2024-01-15T07:35:49;3.03;;;0.80;;
42616;SDS011;28250;52.320;0.360;2024-01-15T07:38:15;3.72;;;0.70;;
42616;SDS011;28250;52.320;0.360;2024-01-15T07:40:41;2.05;;;0.90;;
42616;SDS011;28250;52.320;0.360;2024-01-15T07:43:07;2.58;;;0.85;;
42616;SDS011;28250;52.320;0.360;2024-01-15T07:45:33;0.98;;;0.77;;
42616;SDS011;28250;52.320;0.360;2024-01-15T07:47:59;3.90;;;1.05;;
42616;SDS011;28250;52.320;0.360;2024-01-15T07:50:25;1.20;;;0.80;;
42616;SDS011;28250;52.320;0.360;2024-01-15T07:52:51;3.33;;;0.90;;
42616;SDS011;28250;52.320;0.360;2024-01-15T07:55:18;3.88;;;1.10;;
42616;SDS011;28250;52.320;0.360;2024-01-15T07:57:44;2.30;;;1.10;;
42616;SDS011;28250;52.320;0.360;2024-01-15T08:00:11;3.42;;;1.15;;
42616;SDS011;28250;52.320;0.360;2024-01-15T08:02:37;4.63;;;1.30;;
42616;SDS011;28250;52.320;0.360;2024-01-15T08:05:04;4.20;;;1.30;;
42616;SDS011;28250;52.320;0.360;2024-01-15T08:07:30;2.47;;;1.10;;
42616;SDS011;28250;52.320;0.360;2024-01-15T08:09:56;3.13;;;1.30;;
42616;SDS011;28250;52.320;0.360;2024-01-15T08:12:23;3.85;;;1.13;;
42616;SDS011;28250;52.320;0.360;2024-01-15T08:14:49;4.00;;;1.10;;
42616;SDS011;28250;52.320;0.360;2024-01-15T08:17:15;3.78;;;0.82;;
42616;SDS011;28250;52.320;0.360;2024-01-15T08:19:42;4.13;;;1.33;;
42616;SDS011;28250;52.320;0.360;2024-01-15T08:22:09;4.20;;;1.33;;
42616;SDS011;28250;52.320;0.360;2024-01-15T08:24:35;2.83;;;1.30;;
42616;SDS011;28250;52.320;0.360;2024-01-15T08:27:01;3.13;;;1.60;;
42616;SDS011;28250;52.320;0.360;2024-01-15T08:29:27;6.35;;;1.35;;
42616;SDS011;28250;52.320;0.360;2024-01-15T08:31:53;5.32;;;1.00;;
42616;SDS011;28250;52.320;0.360;2024-01-15T08:34:19;6.65;;;1.17;;
42616;SDS011;28250;52.320;0.360;2024-01-15T08:36:45;4.07;;;1.50;;
42616;SDS011;28250;52.320;0.360;2024-01-15T08:39:12;3.97;;;1.33;;
42616;SDS011;28250;52.320;0.360;2024-01-15T08:41:38;3.08;;;1.02;;
42616;SDS011;28250;52.320;0.360;2024-01-15T08:44:04;0.90;;;0.70;;
42616;SDS011;28250;52.320;0.360;2024-01-15T08:46:30;3.70;;;1.00;;
42616;SDS011;28250;52.320;0.360;2024-01-15T08:48:56;5.70;;;1.50;;
42616;SDS011;28250;52.320;0.360;2024-01-15T08:51:22;2.92;;;0.85;;
42616;SDS011;28250;52.320;0.360;2024-01-15T08:53:48;2.17;;;0.93;;
42616;SDS011;28250;52.320;0.360;2024-01-15T08:56:14;9.82;;;1.20;;
42616;SDS011;28250;52.320;0.360;2024-01-15T08:58:40;7.15;;;0.95;;
42616;SDS011;28250;52.320;0.360;2024-01-15T09:01:06;3.25;;;1.02;;
42616;SDS011;28250;52.320;0.360;2024-01-15T09:03:32;2.58;;;1.00;;
42616;SDS011;28250;52.320;0.360;2024-01-15T09:05:59;4.18;;;1.75;;
42616;SDS011;28250;52.320;0.360;2024-01-15T09:08:25;3.15;;;0.50;;
42616;SDS011;28250;52.320;0.360;2024-01-15T09:10:52;2.58;;;0.90;;
42616;SDS011;28250;52.320;0.360;2024-01-15T09:13:18;1.58;;;0.50;;
42616;SDS011;28250;52.320;0.360;2024-01-15T09:15:45;5.55;;;0.80;;
42616;SDS011;28250;52.320;0.360;2024-01-15T09:18:11;3.97;;;1.15;;
42616;SDS011;28250;52.320;0.360;2024-01-15T09:20:37;1.85;;;0.70;;
42616;SDS011;28250;52.320;0.360;2024-01-15T09:23:03;1.83;;;0.80;;
42616;SDS011;28250;52.320;0.360;2024-01-15T09:25:30;3.08;;;0.90;;
42616;SDS011;28250;52.320;0.360;2024-01-15T09:28:03;2.33;;;0.52;;
42616;SDS011;28250;52.320;0.360;2024-01-15T09:30:35;3.05;;;0.40;;
42616;SDS011;28250;52.320;0.360;2024-01-15T09:33:05;3.50;;;0.52;;
42616;SDS011;28250;52.320;0.360;2024-01-15T09:35:31;1.02;;;0.65;;
42616;SDS011;28250;52.320;0.360;2024-01-15T09:37:57;3.55;;;0.80;;
42616;SDS011;28250;52.320;0.360;2024-01-15T09:40:23;1.42;;;0.45;;
42616;SDS011;28250;52.320;0.360;2024-01-15T09:42:55;4.45;;;0.60;;
42616;SDS011;28250;52.320;0.360;2024-01-15T09:45:22;2.60;;;0.52;;
42616;SDS011;28250;52.320;0.360;2024-01-15T09:47:48;2.15;;;0.43;;
42616;SDS011;28250;52.320;0.360;2024-01-15T09:50:14;1.42;;;0.38;;
42616;SDS011;28250;52.320;0.360;2024-01-15T09:52:40;1.67;;;0.60;;
42616;SDS011;28250;52.320;0.360;2024-01-15T09:55:08;3.42;;;0.60;;
42616;SDS011;28250;52.320;0.360;2024-01-15T09:57:35;1.55;;;0.68;;
42616;SDS011;28250;52.320;0.360;2024-01-15T10:00:02;6.43;;;0.70;;
42616;SDS011;28250;52.320;0.360;2024-01-15T10:02:29;4.18;;;1.15;;
42616;SDS011;28250;52.320;0.360;2024-01-15T10:04:56;1.13;;;0.45;;
42616;SDS011;28250;52.320;0.360;2024-01-15T10:07:22;2.10;;;0.60;;
42616;SDS011;28250;52.320;0.360;2024-01-15T10:09:50;4.43;;;0.95;;
42616;SDS011;28250;52.320;0.360;2024-01-15T10:12:17;3.97;;;0.85;;
42616;SDS011;28250;52.320;0.360;2024-01-15T10:14:43;3.15;;;0.70;;
42616;SDS011;28250;52.320;0.360;2024-01-15T10:17:12;1.75;;;0.60;;
42616;SDS011;28250;52.320;0.360;2024-01-15T10:19:40;5.43;;;0.70;;
42616;SDS011;28250;52.320;0.360;2024-01-15T10:22:09;4.03;;;0.90;;
42616;SDS011;28250;52.320;0.360;2024-01-15T10:24:36;3.30;;;0.68;;
42616;SDS011;28250;52.320;0.360;2024-01-15T10:27:09;4.38;;;0.60;;
42616;SDS011;28250;52.320;0.360;2024-01-15T10:29:36;1.23;;;0.52;;
42616;SDS011;28250;52.320;0.360;2024-01-15T10:32:03;5.05;;;0.50;;
42616;SDS011;28250;52.320;0.360;2024-01-15T10:34:37;2.92;;;0.98;;
42616;SDS011;28250;52.320;0.360;2024-01-15T10:37:06;2.17;;;0.65;;
42616;SDS011;28250;52.320;0.360;2024-01-15T10:39:33;7.97;;;0.70;;
42616;SDS011;28250;52.320;0.360;2024-01-15T10:42:00;3.70;;;0.85;;
42616;SDS011;28250;52.320;0.360;2024-01-15T10:44:26;6.32;;;1.02;;
42616;SDS011;28250;52.320;0.360;2024-01-15T10:46:52;2.33;;;0.73;;
42616;SDS011;28250;52.320;0.360;2024-01-15T10:49:20;4.63;;;0.82;;
42616;SDS011;28250;52.320;0.360;2024-01-15T10:51:46;3.28;;;0.75;;
42616;SDS011;28250;52.320;0.360;2024-01-15T10:54:13;3.95;;;1.02;;
42616;SDS011;28250;52.320;0.360;2024-01-15T10:56:40;1.63;;;0.82;;
42616;SDS011;28250;52.320;0.360;2024-01-15T10:59:07;3.38;;;0.70;;
42616;SDS011;28250;52.320;0.360;2024-01-15T11:01:35;8.52;;;1.00;;
42616;SDS011;28250;52.320;0.360;2024-01-15T11:04:02;4.88;;;0.77;;
42616;SDS011;28250;52.320;0.360;2024-01-15T11:06:29;2.13;;;1.00;;
42616;SDS011;28250;52.320;0.360;2024-01-15T11:09:15;1.80;;;0.68;;
42616;SDS011;28250;52.320;0.360;2024-01-15T11:11:44;3.85;;;1.23;;
42616;SDS011;28250;52.320;0.360;2024-01-15T11:15:17;0.95;;;0.50;;
42616;SDS011;28250;52.320;0.360;2024-01-15T11:17:15;4.47;;;0.82;;
42616;SDS011;28250;52.320;0.360;2024-01-15T11:24:56;3.03;;;0.70;;
42616;SDS011;28250;52.320;0.360;2024-01-15T11:27:40;5.35;;;0.82;;
42616;SDS011;28250;52.320;0.360;2024-01-15T11:30:17;2.92;;;0.88;;
42616;SDS011;28250;52.320;0.360;2024-01-15T11:32:45;3.35;;;1.08;;
42616;SDS011;28250;52.320;0.360;2024-01-15T11:35:12;5.22;;;0.65;;
42616;SDS011;28250;52.320;0.360;2024-01-15T11:40:20;3.42;;;0.70;;
42616;SDS011;28250;52.320;0.360;2024-01-15T11:43:09;2.97;;;0.80;;
42616;SDS011;28250;52.320;0.360;2024-01-15T11:45:35;4.55;;;0.85;;
42616;SDS011;28250;52.320;0.360;2024-01-15T11:48:09;2.40;;;0.57;;
42616;SDS011;28250;52.320;0.360;2024-01-15T11:50:41;3.72;;;0.63;;
42616;SDS011;28250;52.320;0.360;2024-01-15T11:56:14;2.50;;;0.60;;
42616;SDS011;28250;52.320;0.360;2024-01-15T12:01:10;5.85;;;0.77;;
42616;SDS011;28250;52.320;0.360;2024-01-15T12:03:37;5.78;;;0.70;;
42616;SDS011;28250;52.320;0.360;2024-01-15T12:06:06;4.85;;;0.85;;
42616;SDS011;28250;52.320;0.360;2024-01-15T12:08:32;6.80;;;0.88;;
42616;SDS011;28250;52.320;0.360;2024-01-15T12:10:58;4.15;;;1.00;;
42616;SDS011;28250;52.320;0.360;2024-01-15T12:13:25;1.13;;;1.02;;
42616;SDS011;28250;52.320;0.360;2024-01-15T12:15:54;4.10;;;0.90;;
42616;SDS011;28250;52.320;0.360;2024-01-15T12:20:46;4.20;;;0.80;;
42616;SDS011;28250;52.320;0.360;2024-01-15T12:23:12;3.28;;;0.40;;
42616;SDS011;28250;52.320;0.360;2024-01-15T12:25:41;6.15;;;1.10;;
42616;SDS011;28250;52.320;0.360;2024-01-15T12:28:08;3.28;;;0.70;;
42616;SDS011;28250;52.320;0.360;2024-01-15T12:30:35;4.70;;;0.88;;
42616;SDS011;28250;52.320;0.360;2024-01-15T12:33:05;5.22;;;0.70;;
42616;SDS011;28250;52.320;0.360;2024-01-15T12:35:33;3.90;;;0.85;;
42616;SDS011;28250;52.320;0.360;2024-01-15T12:38:00;3.03;;;0.50;;
42616;SDS011;28250;52.320;0.360;2024-01-15T12:40:30;4.55;;;0.90;;
42616;SDS011;28250;52.320;0.360;2024-01-15T12:42:59;6.13;;;1.65;;
42616;SDS011;28250;52.320;0.360;2024-01-15T12:45:26;5.43;;;1.13;;
42616;SDS011;28250;52.320;0.360;2024-01-15T12:47:52;5.82;;;1.10;;
42616;SDS011;28250;52.320;0.360;2024-01-15T12:50:23;3.88;;;0.80;;
42616;SDS011;28250;52.320;0.360;2024-01-15T12:52:51;1.98;;;0.80;;
42616;SDS011;28250;52.320;0.360;2024-01-15T12:55:17;3.92;;;1.00;;
42616;SDS011;28250;52.320;0.360;2024-01-15T12:57:43;2.63;;;0.77;;
42616;SDS011;28250;52.320;0.360;2024-01-15T13:02:40;5.30;;;0.70;;
42616;SDS011;28250;52.320;0.360;2024-01-15T13:05:08;4.38;;;0.80;;
42616;SDS011;28250;52.320;0.360;2024-01-15T13:07:36;5.85;;;0.65;;
42616;SDS011;28250;52.320;0.360;2024-01-15T13:10:03;4.30;;;0.80;;
42616;SDS011;28250;52.320;0.360;2024-01-15T13:12:30;3.63;;;0.90;;
42616;SDS011;28250;52.320;0.360;2024-01-15T13:14:57;4.13;;;1.10;;
42616;SDS011;28250;52.320;0.360;2024-01-15T13:17:24;6.28;;;1.08;;
42616;SDS011;28250;52.320;0.360;2024-01-15T13:19:50;4.22;;;0.80;;
42616;SDS011;28250;52.320;0.360;2024-01-15T13:22:16;3.58;;;1.00;;
42616;SDS011;28250;52.320;0.360;2024-01-15T13:24:42;5.35;;;0.77;;
42616;SDS011;28250;52.320;0.360;2024-01-15T13:27:08;1.07;;;0.57;;
42616;SDS011;28250;52.320;0.360;2024-01-15T13:29:34;5.32;;;1.08;;
42616;SDS011;28250;52.320;0.360;2024-01-15T13:32:00;2.28;;;0.85;;
42616;SDS011;28250;52.320;0.360;2024-01-15T13:34:28;3.47;;;0.68;;
42616;SDS011;28250;52.320;0.360;2024-01-15T13:36:54;4.07;;;0.90;;
42616;SDS011;28250;52.320;0.360;2024-01-15T13:39:21;4.30;;;0.85;;
42616;SDS011;28250;52.320;0.360;2024-01-15T13:41:47;5.25;;;1.17;;
42616;SDS011;28250;52.320;0.360;2024-01-15T13:44:13;3.35;;;1.15;;
42616;SDS011;28250;52.320;0.360;2024-01-15T13:46:39;5.60;;;1.30;;
42616;SDS011;28250;52.320;0.360;2024-01-15T13:49:05;6.43;;;1.00;;
42616;SDS011;28250;52.320;0.360;2024-01-15T13:51:31;4.03;;;1.13;;
42616;SDS011;28250;52.320;0.360;2024-01-15T13:53:57;4.45;;;1.38;;
42616;SDS011;28250;52.320;0.360;2024-01-15T13:56:23;5.00;;;0.90;;
42616;SDS011;28250;52.320;0.360;2024-01-15T13:58:49;4.55;;;1.25;;
42616;SDS011;28250;52.320;0.360;2024-01-15T14:01:17;2.30;;;0.75;;
42616;SDS011;28250;52.320;0.360;2024-01-15T14:03:43;4.28;;;0.88;;
42616;SDS011;28250;52.320;0.360;2024-01-15T14:06:09;5.25;;;1.25;;
42616;SDS011;28250;52.320;0.360;2024-01-15T14:08:36;3.15;;;1.00;;
42616;SDS011;28250;52.320;0.360;2024-01-15T14:11:03;4.80;;;1.20;;
42616;SDS011;28250;52.320;0.360;2024-01-15T14:13:31;4.72;;;1.83;;
42616;SDS011;28250;52.320;0.360;2024-01-15T14:15:58;5.32;;;1.08;;
42616;SDS011;28250;52.320;0.360;2024-01-15T14:18:26;5.82;;;1.27;;
42616;SDS011;28250;52.320;0.360;2024-01-15T14:20:53;3.65;;;1.17;;
42616;SDS011;28250;52.320;0.360;2024-01-15T14:23:19;6.93;;;1.90;;
42616;SDS011;28250;52.320;0.360;2024-01-15T14:25:46;5.07;;;1.10;;
42616;SDS011;28250;52.320;0.360;2024-01-15T14:28:12;5.18;;;1.13;;
42616;SDS011;28250;52.320;0.360;2024-01-15T14:30:38;9.15;;;2.00;;
42616;SDS011;28250;52.320;0.360;2024-01-15T14:33:04;9.52;;;2.00;;
42616;SDS011;28250;52.320;0.360;2024-01-15T14:35:30;7.00;;;1.20;;
42616;SDS011;28250;52.320;0.360;2024-01-15T14:37:56;3.60;;;1.33;;
42616;SDS011;28250;52.320;0.360;2024-01-15T14:40:26;5.55;;;1.30;;
42616;SDS011;28250;52.320;0.360;2024-01-15T14:42:53;5.80;;;1.30;;
42616;SDS011;28250;52.320;0.360;2024-01-15T14:45:20;6.70;;;1.27;;
42616;SDS011;28250;52.320;0.360;2024-01-15T14:47:46;3.33;;;1.20;;
42616;SDS011;28250;52.320;0.360;2024-01-15T14:50:12;8.15;;;1.98;;
42616;SDS011;28250;52.320;0.360;2024-01-15T14:52:38;5.22;;;0.95;;
42616;SDS011;28250;52.320;0.360;2024-01-15T14:55:07;7.68;;;1.67;;
42616;SDS011;28250;52.320;0.360;2024-01-15T15:00:00;6.72;;;1.63;;
42616;SDS011;28250;52.320;0.360;2024-01-15T15:02:27;3.28;;;1.33;;
42616;SDS011;28250;52.320;0.360;2024-01-15T15:04:54;8.10;;;1.90;;
42616;SDS011;28250;52.320;0.360;2024-01-15T15:07:22;6.22;;;1.60;;
42616;SDS011;28250;52.320;0.360;2024-01-15T15:09:49;8.23;;;2.00;;
42616;SDS011;28250;52.320;0.360;2024-01-15T15:12:16;5.57;;;1.83;;
42616;SDS011;28250;52.320;0.360;2024-01-15T15:14:42;5.15;;;1.50;;
42616;SDS011;28250;52.320;0.360;2024-01-15T15:17:09;7.82;;;1.42;;
42616;SDS011;28250;52.320;0.360;2024-01-15T15:19:35;4.55;;;1.35;;
42616;SDS011;28250;52.320;0.360;2024-01-15T15:22:01;6.80;;;1.58;;